sensor_id;sensor_type;location;lat;lon;timestamp;temperature;humidity
36458;DHT22;22480;50.546;12.292;2024-03-23T00:54:13;7.20;99.90
36458;DHT22;22480;50.546;12.292;2024-03-23T00:56:39;7.20;99.90
36458;DHT22;22480;50.546;12.292;2024-03-23T00:59:04;7.10;99.90
36458;DHT22;22480;50.546;12.292;2024-03-23T01:01:30;6.90;99.90
36458;DHT22;22480;50.546;12.292;2024-03-23T01:03:56;6.90;99.90
36458;DHT22;22480;50.546;12.292;2024-03-23T01:06:21;6.80;99.90
36458;DHT22;22480;50.546;12.292;2024-03-23T01:08:47;6.60;99.90
36458;DHT22;22480;50.546;12.292;2024-03-23T01:11:13;6.60;99.90
36458;DHT22;22480;50.546;12.292;2024-03-23T01:13:38;6.50;99.90
36458;DHT22;22480;50.546;12.292;2024-03-23T01:16:04;6.40;99.90
36458;DHT22;22480;50.546;12.292;2024-03-23T01:18:30;6.40;99.90
36458;DHT22;22480;50.546;12.292;2024-03-23T01:20:56;6.20;99.90
36458;DHT22;22480;50.546;12.292;2024-03-23T01:23:21;6.10;99.90
36458;DHT22;22480;50.546;12.292;2024-03-23T01:25:53;5.90;99.90
36458;DHT22;22480;50.546;12.292;2024-03-23T01:28:22;6.00;99.90
36458;DHT22;22480;50.546;12.292;2024-03-23T01:30:49;6.00;99.90
36458;DHT22;22480;50.546;12.292;2024-03-23T01:33:15;6.10;99.90
36458;DHT22;22480;50.546;12.292;2024-03-23T01:35:41;6.10;99.90
36458;DHT22;22480;50.546;12.292;2024-03-23T01:38:06;6.10;99.90
36458;DHT22;22480;50.546;12.292;2024-03-23T01:40:32;6.10;99.90
36458;DHT22;22480;50.546;12.292;2024-03-23T01:43:01;6.10;99.90
36458;DHT22;22480;50.546;12.292;2024-03-23T01:45:29;6.30;99.90
36458;DHT22;22480;50.546;12.292;2024-03-23T01:47:55;6.50;99.90
36458;DHT22;22480;50.546;12.292;2024-03-23T01:50:21;6.70;99.90
36458;DHT22;22480;50.546;12.292;2024-03-23T01:52:48;6.80;99.90
36458;DHT22;22480;50.546;12.292;2024-03-23T01:55:14;7.00;99.90
36458;DHT22;22480;50.546;12.292;2024-03-23T01:57:40;7.10;99.90
36458;DHT22;22480;50.546;12.292;2024-03-23T02:00:06;7.30;99.90
36458;DHT22;22480;50.546;12.292;2024-03-23T02:02:44;7.40;99.90
36458;DHT22;22480;50.546;12.292;2024-03-23T02:05:11;7.50;99.90
36458;DHT22;22480;50.546;12.292;2024-03-23T02:07:38;7.60;99.90
36458;DHT22;22480;50.546;12.292;2024-03-23T02:10:06;7.70;99.90
36458;DHT22;22480;50.546;12.292;2024-03-23T02:12:31;7.70;99.90
36458;DHT22;22480;50.546;12.292;2024-03-23T02:14:57;7.70;99.90
36458;DHT22;22480;50.546;12.292;2024-03-23T02:17:23;7.60;99.90
36458;DHT22;22480;50.546;12.292;2024-03-23T02:19:50;7.50;99.90
36458;DHT22;22480;50.546;12.292;2024-03-23T02:22:16;7.40;99.90
36458;DHT22;22480;50.546;12.292;2024-03-23T02:24:42;7.40;99.90
36458;DHT22;22480;50.546;12.292;2024-03-23T02:27:08;7.40;99.90
36458;DHT22;22480;50.546;12.292;2024-03-23T02:29:34;7.20;99.90
36458;DHT22;22480;50.546;12.292;2024-03-23T02:32:00;7.00;99.90
36458;DHT22;22480;50.546;12.292;2024-03-23T02:34:26;6.90;99.90
36458;DHT22;22480;50.546;12.292;2024-03-23T02:36:52;6.70;99.90
36458;DHT22;22480;50.546;12.292;2024-03-23T02:39:18;6.60;99.90
36458;DHT22;22480;50.546;12.292;2024-03-23T02:41:43;6.40;99.90
36458;DHT22;22480;50.546;12.292;2024-03-23T02:44:09;6.30;99.90
36458;DHT22;22480;50.546;12.292;2024-03-23T02:46:38;6.20;99.90
36458;DHT22;22480;50.546;12.292;2024-03-23T02:49:03;6.00;99.90
36458;DHT22;22480;50.546;12.292;2024-03-23T02:51:30;6.10;99.90
36458;DHT22;22480;50.546;12.292;2024-03-23T02:53:56;5.90;99.90
36458;DHT22;22480;50.546;12.292;2024-03-23T02:56:22;5.90;99.90
36458;DHT22;22480;50.546;12.292;2024-03-23T02:58:47;5.90;99.90
36458;DHT22;22480;50.546;12.292;2024-03-23T03:01:13;5.70;99.90
36458;DHT22;22480;50.546;12.292;2024-03-23T03:03:39;5.70;99.90
36458;DHT22;22480;50.546;12.292;2024-03-23T03:06:05;5.80;99.90
36458;DHT22;22480;50.546;12.292;2024-03-23T03:08:31;5.90;99.90
36458;DHT22;22480;50.546;12.292;2024-03-23T03:10:56;5.90;99.90
36458;DHT22;22480;50.546;12.292;2024-03-23T03:13:22;5.90;99.90
36458;DHT22;22480;50.546;12.292;2024-03-23T03:15:48;6.00;99.90
36458;DHT22;22480;50.546;12.292;2024-03-23T03:18:13;5.90;99.90
36458;DHT22;22480;50.546;12.292;2024-03-23T03:20:39;5.80;99.90
36458;DHT22;22480;50.546;12.292;2024-03-23T03:23:08;5.70;99.90
36458;DHT22;22480;50.546;12.292;2024-03-23T03:25:35;5.60;99.90
36458;DHT22;22480;50.546;12.292;2024-03-23T03:28:00;5.80;99.90
36458;DHT22;22480;50.546;12.292;2024-03-23T03:30:27;5.90;99.90
36458;DHT22;22480;50.546;12.292;2024-03-23T03:32:53;6.00;99.90
36458;DHT22;22480;50.546;12.292;2024-03-23T03:35:19;5.90;99.90
36458;DHT22;22480;50.546;12.292;2024-03-23T03:37:45;5.70;99.90
36458;DHT22;22480;50.546;12.292;2024-03-23T03:40:12;5.50;99.90
36458;DHT22;22480;50.546;12.292;2024-03-23T03:42:37;5.50;99.90
36458;DHT22;22480;50.546;12.292;2024-03-23T03:45:04;5.50;99.90
36458;DHT22;22480;50.546;12.292;2024-03-23T03:47:30;5.40;99.90
36458;DHT22;22480;50.546;12.292;2024-03-23T03:49:56;5.40;99.90
36458;DHT22;22480;50.546;12.292;2024-03-23T03:52:21;5.40;99.90
36458;DHT22;22480;50.546;12.292;2024-03-23T03:54:47;5.40;99.90
36458;DHT22;22480;50.546;12.292;2024-03-23T03:57:13;5.30;99.90
36458;DHT22;22480;50.546;12.292;2024-03-23T03:59:39;5.30;99.90
36458;DHT22;22480;50.546;12.292;2024-03-23T04:02:04;5.30;99.90
36458;DHT22;22480;50.546;12.292;2024-03-23T04:04:30;5.40;99.90
36458;DHT22;22480;50.546;12.292;2024-03-23T04:07:02;5.40;99.90
36458;DHT22;22480;50.546;12.292;2024-03-23T04:09:28;5.40;99.90
36458;DHT22;22480;50.546;12.292;2024-03-23T04:11:55;5.50;99.90
36458;DHT22;22480;50.546;12.292;2024-03-23T04:14:21;5.60;99.90
36458;DHT22;22480;50.546;12.292;2024-03-23T04:16:47;5.50;99.90
36458;DHT22;22480;50.546;12.292;2024-03-23T04:19:12;5.50;99.90
36458;DHT22;22480;50.546;12.292;2024-03-23T04:21:38;5.50;99.90
36458;DHT22;22480;50.546;12.292;2024-03-23T04:24:04;5.60;99.90
36458;DHT22;22480;50.546;12.292;2024-03-23T04:26:30;5.60;99.90
36458;DHT22;22480;50.546;12.292;2024-03-23T04:29:05;5.70;99.90
36458;DHT22;22480;50.546;12.292;2024-03-23T04:31:31;5.80;99.90
36458;DHT22;22480;50.546;12.292;2024-03-23T04:33:58;6.20;99.90
36458;DHT22;22480;50.546;12.292;2024-03-23T04:36:24;6.40;99.90
36458;DHT22;22480;50.546;12.292;2024-03-23T04:38:50;6.50;99.90
36458;DHT22;22480;50.546;12.292;2024-03-23T04:41:18;6.60;99.90
36458;DHT22;22480;50.546;12.292;2024-03-23T04:43:43;6.70;99.90
36458;DHT22;22480;50.546;12.292;2024-03-23T04:46:09;6.80;99.90
36458;DHT22;22480;50.546;12.292;2024-03-23T04:48:35;6.90;99.90
36458;DHT22;22480;50.546;12.292;2024-03-23T04:51:02;7.00;99.90
36458;DHT22;22480;50.546;12.292;2024-03-23T04:53:27;7.00;99.90
36458;DHT22;22480;50.546;12.292;2024-03-23T04:55:56;7.10;99.90
36458;DHT22;22480;50.546;12.292;2024-03-23T04:58:22;7.10;99.90
36458;DHT22;22480;50.546;12.292;2024-03-23T05:00:54;7.20;99.90
36458;DHT22;22480;50.546;12.292;2024-03-23T05:03:19;7.20;99.90
36458;DHT22;22480;50.546;12.292;2024-03-23T05:05:49;7.20;99.90
36458;DHT22;22480;50.546;12.292;2024-03-23T05:08:16;7.40;99.90
36458;DHT22;22480;50.546;12.292;2024-03-23T05:10:44;7.40;99.90
36458;DHT22;22480;50.546;12.292;2024-03-23T05:13:10;7.40;99.90
36458;DHT22;22480;50.546;12.292;2024-03-23T05:15:36;7.50;99.90
36458;DHT22;22480;50.546;12.292;2024-03-23T05:18:02;7.60;99.90
36458;DHT22;22480;50.546;12.292;2024-03-23T05:20:28;7.60;99.90
36458;DHT22;22480;50.546;12.292;2024-03-23T05:22:55;7.70;99.90
36458;DHT22;22480;50.546;12.292;2024-03-23T05:25:20;7.70;99.90
36458;DHT22;22480;50.546;12.292;2024-03-23T05:27:46;7.80;99.90
36458;DHT22;22480;50.546;12.292;2024-03-23T05:30:12;7.90;99.90
36458;DHT22;22480;50.546;12.292;2024-03-23T05:32:37;7.90;99.90
36458;DHT22;22480;50.546;12.292;2024-03-23T05:35:07;8.00;99.90
36458;DHT22;22480;50.546;12.292;2024-03-23T05:37:33;7.90;99.90
36458;DHT22;22480;50.546;12.292;2024-03-23T05:40:00;8.00;99.90
36458;DHT22;22480;50.546;12.292;2024-03-23T05:42:25;8.00;99.90
36458;DHT22;22480;50.546;12.292;2024-03-23T05:44:52;8.10;99.90
36458;DHT22;22480;50.546;12.292;2024-03-23T05:47:17;8.10;99.90
36458;DHT22;22480;50.546;12.292;2024-03-23T05:49:43;8.10;99.90
36458;DHT22;22480;50.546;12.292;2024-03-23T05:52:09;8.00;99.90
36458;DHT22;22480;50.546;12.292;2024-03-23T05:54:35;8.10;99.90
36458;DHT22;22480;50.546;12.292;2024-03-23T05:57:02;8.10;99.90
36458;DHT22;22480;50.546;12.292;2024-03-23T05:59:28;8.10;99.90
36458;DHT22;22480;50.546;12.292;2024-03-23T06:01:53;8.10;99.90
36458;DHT22;22480;50.546;12.292;2024-03-23T06:04:19;8.00;99.90
36458;DHT22;22480;50.546;12.292;2024-03-23T06:06:45;8.00;99.90
36458;DHT22;22480;50.546;12.292;2024-03-23T06:09:11;8.00;99.90
36458;DHT22;22480;50.546;12.292;2024-03-23T06:11:37;8.00;99.90
36458;DHT22;22480;50.546;12.292;2024-03-23T06:14:02;8.00;99.90
36458;DHT22;22480;50.546;12.292;2024-03-23T06:16:28;8.10;99.90
36458;DHT22;22480;50.546;12.292;2024-03-23T06:18:54;8.20;99.90
36458;DHT22;22480;50.546;12.292;2024-03-23T06:21:20;8.10;99.90
36458;DHT22;22480;50.546;12.292;2024-03-23T06:23:46;8.20;99.90
36458;DHT22;22480;50.546;12.292;2024-03-23T06:26:19;8.20;99.90
36458;DHT22;22480;50.546;12.292;2024-03-23T06:28:46;8.30;99.90
36458;DHT22;22480;50.546;12.292;2024-03-23T06:31:12;8.30;99.90
36458;DHT22;22480;50.546;12.292;2024-03-23T06:33:38;8.40;99.90
36458;DHT22;22480;50.546;12.292;2024-03-23T06:36:05;8.50;99.90
36458;DHT22;22480;50.546;12.292;2024-03-23T06:38:31;8.50;99.90
36458;DHT22;22480;50.546;12.292;2024-03-23T06:40:57;8.60;99.90
36458;DHT22;22480;50.546;12.292;2024-03-23T06:43:23;8.60;99.90
36458;DHT22;22480;50.546;12.292;2024-03-23T06:45:55;8.70;99.90
36458;DHT22;22480;50.546;12.292;2024-03-23T06:48:21;8.80;99.90
36458;DHT22;22480;50.546;12.292;2024-03-23T06:50:47;8.90;99.90
36458;DHT22;22480;50.546;12.292;2024-03-23T06:53:13;9.00;99.90
36458;DHT22;22480;50.546;12.292;2024-03-23T06:55:39;9.10;99.90
36458;DHT22;22480;50.546;12.292;2024-03-23T06:58:05;9.30;99.90
36458;DHT22;22480;50.546;12.292;2024-03-23T07:00:31;9.30;99.90
36458;DHT22;22480;50.546;12.292;2024-03-23T07:02:58;9.40;99.90
36458;DHT22;22480;50.546;12.292;2024-03-23T07:05:23;9.40;99.90
36458;DHT22;22480;50.546;12.292;2024-03-23T07:07:49;9.40;99.90
36458;DHT22;22480;50.546;12.292;2024-03-23T07:10:15;9.40;99.90
36458;DHT22;22480;50.546;12.292;2024-03-23T07:12:41;9.40;99.90
36458;DHT22;22480;50.546;12.292;2024-03-23T07:15:07;9.50;99.90
36458;DHT22;22480;50.546;12.292;2024-03-23T07:17:34;9.60;99.90
36458;DHT22;22480;50.546;12.292;2024-03-23T07:20:01;9.70;99.90
36458;DHT22;22480;50.546;12.292;2024-03-23T07:22:30;9.80;99.90
36458;DHT22;22480;50.546;12.292;2024-03-23T07:24:56;9.90;99.90
36458;DHT22;22480;50.546;12.292;2024-03-23T07:27:21;9.90;99.90
36458;DHT22;22480;50.546;12.292;2024-03-23T07:29:49;10.10;99.90
36458;DHT22;22480;50.546;12.292;2024-03-23T07:32:15;10.20;99.90
36458;DHT22;22480;50.546;12.292;2024-03-23T07:34:40;10.30;99.90
36458;DHT22;22480;50.546;12.292;2024-03-23T07:37:08;10.30;99.90
36458;DHT22;22480;50.546;12.292;2024-03-23T07:39:34;10.20;99.90
36458;DHT22;22480;50.546;12.292;2024-03-23T07:42:00;10.20;99.90
36458;DHT22;22480;50.546;12.292;2024-03-23T07:44:25;10.30;99.90
36458;DHT22;22480;50.546;12.292;2024-03-23T07:46:51;10.30;99.90
36458;DHT22;22480;50.546;12.292;2024-03-23T07:49:17;10.10;99.90
36458;DHT22;22480;50.546;12.292;2024-03-23T07:51:43;10.10;99.90
36458;DHT22;22480;50.546;12.292;2024-03-23T07:54:10;10.00;99.90
36458;DHT22;22480;50.546;12.292;2024-03-23T07:56:36;9.90;99.90
36458;DHT22;22480;50.546;12.292;2024-03-23T07:59:01;9.80;99.90
36458;DHT22;22480;50.546;12.292;2024-03-23T08:01:29;9.80;99.90
36458;DHT22;22480;50.546;12.292;2024-03-23T08:03:55;9.90;99.90
36458;DHT22;22480;50.546;12.292;2024-03-23T08:06:20;10.00;99.90
36458;DHT22;22480;50.546;12.292;2024-03-23T08:08:49;10.00;99.90
36458;DHT22;22480;50.546;12.292;2024-03-23T08:11:16;10.00;99.90
36458;DHT22;22480;50.546;12.292;2024-03-23T08:13:42;10.00;99.90
36458;DHT22;22480;50.546;12.292;2024-03-23T08:16:10;10.00;99.90
36458;DHT22;22480;50.546;12.292;2024-03-23T08:18:37;9.80;99.90
36458;DHT22;22480;50.546;12.292;2024-03-23T08:21:04;9.60;99.90
36458;DHT22;22480;50.546;12.292;2024-03-23T08:23:31;9.40;99.90
36458;DHT22;22480;50.546;12.292;2024-03-23T08:26:03;9.20;99.90
36458;DHT22;22480;50.546;12.292;2024-03-23T08:28:29;9.10;99.90
36458;DHT22;22480;50.546;12.292;2024-03-23T08:30:56;9.10;99.90
36458;DHT22;22480;50.546;12.292;2024-03-23T08:33:22;9.10;99.90
36458;DHT22;22480;50.546;12.292;2024-03-23T08:38:20;9.10;99.90
36458;DHT22;22480;50.546;12.292;2024-03-23T08:40:45;9.00;99.90
36458;DHT22;22480;50.546;12.292;2024-03-23T08:43:11;8.90;99.90
36458;DHT22;22480;50.546;12.292;2024-03-23T08:45:37;8.80;99.90
36458;DHT22;22480;50.546;12.292;2024-03-23T08:48:02;8.50;99.90
36458;DHT22;22480;50.546;12.292;2024-03-23T08:50:28;8.30;99.90
36458;DHT22;22480;50.546;12.292;2024-03-23T08:52:54;8.00;99.90
36458;DHT22;22480;50.546;12.292;2024-03-23T08:55:19;7.90;99.90
36458;DHT22;22480;50.546;12.292;2024-03-23T08:57:45;7.80;99.90
36458;DHT22;22480;50.546;12.292;2024-03-23T09:00:11;7.80;99.90
36458;DHT22;22480;50.546;12.292;2024-03-23T09:02:37;7.70;99.90
36458;DHT22;22480;50.546;12.292;2024-03-23T09:05:03;7.60;99.90
36458;DHT22;22480;50.546;12.292;2024-03-23T09:07:32;6.90;99.90
36458;DHT22;22480;50.546;12.292;2024-03-23T09:09:58;6.60;99.90
36458;DHT22;22480;50.546;12.292;2024-03-23T09:12:24;6.20;99.90
36458;DHT22;22480;50.546;12.292;2024-03-23T09:14:50;5.80;99.90
36458;DHT22;22480;50.546;12.292;2024-03-23T09:17:16;5.50;99.90
36458;DHT22;22480;50.546;12.292;2024-03-23T09:19:41;5.30;99.90
36458;DHT22;22480;50.546;12.292;2024-03-23T09:22:07;5.00;99.90
36458;DHT22;22480;50.546;12.292;2024-03-23T09:24:33;4.80;99.90
36458;DHT22;22480;50.546;12.292;2024-03-23T09:26:58;4.60;99.90
36458;DHT22;22480;50.546;12.292;2024-03-23T09:29:24;4.70;99.90
36458;DHT22;22480;50.546;12.292;2024-03-23T09:31:50;4.50;99.90
36458;DHT22;22480;50.546;12.292;2024-03-23T09:34:15;4.50;99.90
36458;DHT22;22480;50.546;12.292;2024-03-23T09:36:41;4.30;99.90
36458;DHT22;22480;50.546;12.292;2024-03-23T09:39:07;4.40;99.90
36458;DHT22;22480;50.546;12.292;2024-03-23T09:41:35;4.50;99.90
36458;DHT22;22480;50.546;12.292;2024-03-23T09:44:02;4.50;99.90
36458;DHT22;22480;50.546;12.292;2024-03-23T09:46:27;4.70;99.90
36458;DHT22;22480;50.546;12.292;2024-03-23T09:49:00;4.70;99.90
36458;DHT22;22480;50.546;12.292;2024-03-23T09:51:26;4.70;99.90
36458;DHT22;22480;50.546;12.292;2024-03-23T09:53:52;4.70;99.90
36458;DHT22;22480;50.546;12.292;2024-03-23T09:56:18;4.60;99.90
36458;DHT22;22480;50.546;12.292;2024-03-23T09:58:44;4.40;99.90
36458;DHT22;22480;50.546;12.292;2024-03-23T10:01:10;4.50;99.90
36458;DHT22;22480;50.546;12.292;2024-03-23T10:03:45;4.50;99.90
36458;DHT22;22480;50.546;12.292;2024-03-23T10:06:11;4.50;99.90
36458;DHT22;22480;50.546;12.292;2024-03-23T10:08:37;4.60;99.90
36458;DHT22;22480;50.546;12.292;2024-03-23T10:11:13;4.50;99.90
36458;DHT22;22480;50.546;12.292;2024-03-23T10:13:42;4.40;99.90
36458;DHT22;22480;50.546;12.292;2024-03-23T10:16:09;4.40;99.90
36458;DHT22;22480;50.546;12.292;2024-03-23T10:18:39;4.40;99.90
36458;DHT22;22480;50.546;12.292;2024-03-23T10:21:09;4.40;99.90
36458;DHT22;22480;50.546;12.292;2024-03-23T10:23:39;4.30;99.90
36458;DHT22;22480;50.546;12.292;2024-03-23T10:26:24;4.50;99.90
36458;DHT22;22480;50.546;12.292;2024-03-23T10:28:56;4.60;99.90
36458;DHT22;22480;50.546;12.292;2024-03-23T10:31:25;4.60;99.90
36458;DHT22;22480;50.546;12.292;2024-03-23T10:33:50;4.60;99.90
36458;DHT22;22480;50.546;12.292;2024-03-23T10:36:20;4.60;99.90
36458;DHT22;22480;50.546;12.292;2024-03-23T10:38:46;4.70;99.90
36458;DHT22;22480;50.546;12.292;2024-03-23T10:41:13;4.60;99.90
36458;DHT22;22480;50.546;12.292;2024-03-23T10:43:39;4.90;99.90
36458;DHT22;22480;50.546;12.292;2024-03-23T10:46:05;5.00;99.90
36458;DHT22;22480;50.546;12.292;2024-03-23T10:48:32;5.10;99.90
36458;DHT22;22480;50.546;12.292;2024-03-23T10:50:58;5.20;99.90
36458;DHT22;22480;50.546;12.292;2024-03-23T10:53:26;5.40;99.90
36458;DHT22;22480;50.546;12.292;2024-03-23T10:55:52;5.70;99.90
36458;DHT22;22480;50.546;12.292;2024-03-23T10:58:26;5.70;99.90
36458;DHT22;22480;50.546;12.292;2024-03-23T11:00:53;5.80;99.90
36458;DHT22;22480;50.546;12.292;2024-03-23T11:03:35;5.90;99.90
36458;DHT22;22480;50.546;12.292;2024-03-23T11:06:03;5.90;99.90
36458;DHT22;22480;50.546;12.292;2024-03-23T11:08:37;5.90;99.90
36458;DHT22;22480;50.546;12.292;2024-03-23T11:11:19;5.80;99.90
36458;DHT22;22480;50.546;12.292;2024-03-23T11:13:49;5.70;99.90
36458;DHT22;22480;50.546;12.292;2024-03-23T11:16:28;5.60;99.90
36458;DHT22;22480;50.546;12.292;2024-03-23T11:19:39;5.70;99.90
36458;DHT22;22480;50.546;12.292;2024-03-23T11:22:05;5.50;99.90
36458;DHT22;22480;50.546;12.292;2024-03-23T11:24:32;5.30;99.90
36458;DHT22;22480;50.546;12.292;2024-03-23T11:26:57;5.20;99.90
36458;DHT22;22480;50.546;12.292;2024-03-23T11:29:29;5.30;99.90
36458;DHT22;22480;50.546;12.292;2024-03-23T11:31:55;5.50;99.90
36458;DHT22;22480;50.546;12.292;2024-03-23T11:34:21;5.80;99.90
36458;DHT22;22480;50.546;12.292;2024-03-23T11:36:48;6.00;99.90
36458;DHT22;22480;50.546;12.292;2024-03-23T11:41:46;5.60;99.90
36458;DHT22;22480;50.546;12.292;2024-03-23T11:46:44;5.60;99.90
36458;DHT22;22480;50.546;12.292;2024-03-23T11:49:23;5.70;99.90
36458;DHT22;22480;50.546;12.292;2024-03-23T11:51:50;5.70;99.90
36458;DHT22;22480;50.546;12.292;2024-03-23T11:54:16;6.00;99.90
36458;DHT22;22480;50.546;12.292;2024-03-23T11:59:39;6.20;99.90
36458;DHT22;22480;50.546;12.292;2024-03-23T12:02:09;6.00;99.90
36458;DHT22;22480;50.546;12.292;2024-03-23T12:04:36;6.50;99.90
36458;DHT22;22480;50.546;12.292;2024-03-23T12:09:37;7.60;99.90
36458;DHT22;22480;50.546;12.292;2024-03-23T12:12:29;7.80;99.90
36458;DHT22;22480;50.546;12.292;2024-03-23T12:15:08;7.20;99.90
36458;DHT22;22480;50.546;12.292;2024-03-23T12:17:34;7.30;99.90
36458;DHT22;22480;50.546;12.292;2024-03-23T12:20:00;7.10;99.90
36458;DHT22;22480;50.546;12.292;2024-03-23T12:22:26;7.30;99.90
36458;DHT22;22480;50.546;12.292;2024-03-23T12:24:52;7.00;99.90
36458;DHT22;22480;50.546;12.292;2024-03-23T12:27:18;7.10;99.90
36458;DHT22;22480;50.546;12.292;2024-03-23T12:29:44;7.30;99.90
36458;DHT22;22480;50.546;12.292;2024-03-23T12:32:13;7.60;99.90
36458;DHT22;22480;50.546;12.292;2024-03-23T12:34:38;7.50;99.90
36458;DHT22;22480;50.546;12.292;2024-03-23T12:37:04;7.30;99.90
36458;DHT22;22480;50.546;12.292;2024-03-23T12:39:31;7.30;99.90
36458;DHT22;22480;50.546;12.292;2024-03-23T12:41:57;7.20;99.90
36458;DHT22;22480;50.546;12.292;2024-03-23T12:44:23;6.90;99.90
36458;DHT22;22480;50.546;12.292;2024-03-23T12:46:48;6.70;99.90
36458;DHT22;22480;50.546;12.292;2024-03-23T12:49:14;6.60;99.90
36458;DHT22;22480;50.546;12.292;2024-03-23T12:51:55;6.50;99.90
36458;DHT22;22480;50.546;12.292;2024-03-23T12:54:22;6.40;99.90
36458;DHT22;22480;50.546;12.292;2024-03-23T12:56:47;6.40;99.90
36458;DHT22;22480;50.546;12.292;2024-03-23T12:59:13;6.40;99.90
36458;DHT22;22480;50.546;12.292;2024-03-23T13:01:40;6.40;99.90
36458;DHT22;22480;50.546;12.292;2024-03-23T13:04:06;6.60;99.90
36458;DHT22;22480;50.546;12.292;2024-03-23T13:06:32;6.70;99.90
36458;DHT22;22480;50.546;12.292;2024-03-23T13:09:03;6.80;99.90
36458;DHT22;22480;50.546;12.292;2024-03-23T13:11:29;6.80;99.90
36458;DHT22;22480;50.546;12.292;2024-03-23T13:13:55;6.80;99.90
36458;DHT22;22480;50.546;12.292;2024-03-23T13:16:21;6.70;99.90
36458;DHT22;22480;50.546;12.292;2024-03-23T13:18:47;6.80;99.90
36458;DHT22;22480;50.546;12.292;2024-03-23T13:21:12;7.80;99.90
36458;DHT22;22480;50.546;12.292;2024-03-23T13:23:38;8.40;99.90
36458;DHT22;22480;50.546;12.292;2024-03-23T13:26:07;8.20;99.90
36458;DHT22;22480;50.546;12.292;2024-03-23T13:28:34;8.00;99.90
36458;DHT22;22480;50.546;12.292;2024-03-23T13:31:01;7.70;99.70
36458;DHT22;22480;50.546;12.292;2024-03-23T13:33:30;8.00;99.90
36458;DHT22;22480;50.546;12.292;2024-03-23T13:35:58;8.60;99.90
36458;DHT22;22480;50.546;12.292;2024-03-23T13:38:24;9.00;99.90
36458;DHT22;22480;50.546;12.292;2024-03-23T13:40:57;9.40;97.00
36458;DHT22;22480;50.546;12.292;2024-03-23T13:43:24;9.20;97.40
36458;DHT22;22480;50.546;12.292;2024-03-23T13:45:57;9.00;99.20
36458;DHT22;22480;50.546;12.292;2024-03-23T13:48:24;8.90;99.70
36458;DHT22;22480;50.546;12.292;2024-03-23T13:51:02;9.00;98.40
36458;DHT22;22480;50.546;12.292;2024-03-23T13:53:29;9.10;98.10
36458;DHT22;22480;50.546;12.292;2024-03-23T13:55:54;9.60;95.90
36458;DHT22;22480;50.546;12.292;2024-03-23T13:58:20;10.10;96.00
36458;DHT22;22480;50.546;12.292;2024-03-23T14:00:46;9.70;94.10
36458;DHT22;22480;50.546;12.292;2024-03-23T14:03:13;9.50;93.00
36458;DHT22;22480;50.546;12.292;2024-03-23T14:05:40;9.20;94.10
36458;DHT22;22480;50.546;12.292;2024-03-23T14:08:09;8.80;93.20
36458;DHT22;22480;50.546;12.292;2024-03-23T14:10:35;8.50;92.60
36458;DHT22;22480;50.546;12.292;2024-03-23T14:13:04;8.50;94.70
36458;DHT22;22480;50.546;12.292;2024-03-23T14:15:30;8.90;89.60
36458;DHT22;22480;50.546;12.292;2024-03-23T14:17:56;9.30;84.40
36458;DHT22;22480;50.546;12.292;2024-03-23T14:20:22;9.50;83.50
36458;DHT22;22480;50.546;12.292;2024-03-23T14:22:49;9.50;84.20
36458;DHT22;22480;50.546;12.292;2024-03-23T14:25:15;9.50;81.60
36458;DHT22;22480;50.546;12.292;2024-03-23T14:27:41;9.20;81.40
36458;DHT22;22480;50.546;12.292;2024-03-23T14:30:07;9.00;84.70
36458;DHT22;22480;50.546;12.292;2024-03-23T14:32:34;9.40;82.40
36458;DHT22;22480;50.546;12.292;2024-03-23T14:35:03;9.90;82.10
36458;DHT22;22480;50.546;12.292;2024-03-23T14:37:29;10.20;80.60
36458;DHT22;22480;50.546;12.292;2024-03-23T14:39:58;9.80;75.90
36458;DHT22;22480;50.546;12.292;2024-03-23T14:42:24;9.50;74.50
36458;DHT22;22480;50.546;12.292;2024-03-23T14:44:51;9.70;75.40
36458;DHT22;22480;50.546;12.292;2024-03-23T14:47:18;10.00;75.00
36458;DHT22;22480;50.546;12.292;2024-03-23T14:49:44;10.00;73.00
36458;DHT22;22480;50.546;12.292;2024-03-23T14:52:14;9.30;74.60
36458;DHT22;22480;50.546;12.292;2024-03-23T14:54:40;9.50;76.20
36458;DHT22;22480;50.546;12.292;2024-03-23T14:57:05;9.50;75.30
36458;DHT22;22480;50.546;12.292;2024-03-23T14:59:35;9.50;73.60
36458;DHT22;22480;50.546;12.292;2024-03-23T15:02:01;9.00;75.70
36458;DHT22;22480;50.546;12.292;2024-03-23T15:04:26;8.30;78.70
36458;DHT22;22480;50.546;12.292;2024-03-23T15:06:52;8.00;78.70
36458;DHT22;22480;50.546;12.292;2024-03-23T15:09:18;7.90;80.20
36458;DHT22;22480;50.546;12.292;2024-03-23T15:11:44;7.80;81.60
36458;DHT22;22480;50.546;12.292;2024-03-23T15:14:09;7.80;82.50
36458;DHT22;22480;50.546;12.292;2024-03-23T15:16:36;7.70;81.80
36458;DHT22;22480;50.546;12.292;2024-03-23T15:19:02;7.80;83.90
36458;DHT22;22480;50.546;12.292;2024-03-23T15:21:28;7.80;83.60
36458;DHT22;22480;50.546;12.292;2024-03-23T15:23:53;7.80;83.50
36458;DHT22;22480;50.546;12.292;2024-03-23T15:26:19;7.80;85.20
36458;DHT22;22480;50.546;12.292;2024-03-23T15:28:48;8.20;86.10
36458;DHT22;22480;50.546;12.292;2024-03-23T15:31:23;8.40;84.20
36458;DHT22;22480;50.546;12.292;2024-03-23T15:33:51;9.00;81.10
36458;DHT22;22480;50.546;12.292;2024-03-23T15:36:17;9.40;82.10
36458;DHT22;22480;50.546;12.292;2024-03-23T15:38:43;9.40;78.60
36458;DHT22;22480;50.546;12.292;2024-03-23T15:41:09;9.60;76.60
36458;DHT22;22480;50.546;12.292;2024-03-23T15:43:35;9.00;77.80
36458;DHT22;22480;50.546;12.292;2024-03-23T15:46:02;8.50;77.40
36458;DHT22;22480;50.546;12.292;2024-03-23T15:48:29;8.10;80.50
36458;DHT22;22480;50.546;12.292;2024-03-23T15:51:01;7.90;82.30
36458;DHT22;22480;50.546;12.292;2024-03-23T15:53:27;8.00;84.80
36458;DHT22;22480;50.546;12.292;2024-03-23T15:56:01;8.50;85.70
36458;DHT22;22480;50.546;12.292;2024-03-23T15:58:28;9.00;83.50
36458;DHT22;22480;50.546;12.292;2024-03-23T16:01:03;9.40;81.60
36458;DHT22;22480;50.546;12.292;2024-03-23T16:03:30;9.20;81.40
36458;DHT22;22480;50.546;12.292;2024-03-23T16:06:04;9.10;82.00
36458;DHT22;22480;50.546;12.292;2024-03-23T16:08:31;9.00;85.10
36458;DHT22;22480;50.546;12.292;2024-03-23T16:11:00;8.90;85.40
36458;DHT22;22480;50.546;12.292;2024-03-23T16:13:27;8.60;84.60
36458;DHT22;22480;50.546;12.292;2024-03-23T16:16:00;8.40;85.50
36458;DHT22;22480;50.546;12.292;2024-03-23T16:18:26;8.10;88.40
36458;DHT22;22480;50.546;12.292;2024-03-23T16:23:21;7.80;89.90
36458;DHT22;22480;50.546;12.292;2024-03-23T16:25:51;7.90;90.80
36458;DHT22;22480;50.546;12.292;2024-03-23T16:28:36;7.90;88.60
36458;DHT22;22480;50.546;12.292;2024-03-23T16:31:07;7.60;89.60
36458;DHT22;22480;50.546;12.292;2024-03-23T16:33:36;7.40;90.60
36458;DHT22;22480;50.546;12.292;2024-03-23T16:36:03;7.30;91.30
36458;DHT22;22480;50.546;12.292;2024-03-23T16:38:33;7.20;91.40